createdAt,value
2023-01-01T00:00:14.672Z,12.46
2023-01-01T00:03:08.941Z,12.40
2023-01-01T00:05:56.570Z,12.19
2023-01-01T00:08:39.284Z,12.26
2023-01-01T00:11:18.445Z,12.22
2023-01-01T00:13:47.806Z,12.27
2023-01-01T00:16:23.033Z,12.15
2023-01-01T00:18:53.247Z,12.13
2023-01-01T00:21:29.740Z,11.91
2023-01-01T00:24:09.292Z,11.78
2023-01-01T00:26:54.642Z,11.76
2023-01-01T00:29:25.128Z,11.79
2023-01-01T00:31:55.791Z,11.89
2023-01-01T00:34:33.304Z,12.02
2023-01-01T00:37:24.879Z,11.92
2023-01-01T00:40:20.432Z,11.90
2023-01-01T00:42:53.594Z,12.18
2023-01-01T00:45:23.124Z,12.10
2023-01-01T00:48:31.654Z,12.38
2023-01-01T00:54:51.714Z,12.58
2023-01-01T00:57:22.753Z,12.61
2023-01-01T00:59:56.361Z,12.71
2023-01-01T01:02:31.632Z,12.66
2023-01-01T01:05:01.886Z,12.94
2023-01-01T01:07:38.220Z,12.96
2023-01-01T01:10:07.400Z,13.06
2023-01-01T01:12:42.599Z,12.90
2023-01-01T01:15:11.683Z,12.88
2023-01-01T01:17:47.018Z,12.97
2023-01-01T01:20:15.487Z,12.86
2023-01-01T01:22:43.457Z,12.78
2023-01-01T01:25:13.908Z,12.61
2023-01-01T01:27:46.279Z,12.57
2023-01-01T01:30:24.439Z,12.48
2023-01-01T01:32:52.381Z,12.35
2023-01-01T01:35:20.610Z,12.12
2023-01-01T01:37:49.312Z,12.10
2023-01-01T01:40:19.680Z,12.18
2023-01-01T01:42:51.651Z,11.96
2023-01-01T01:45:38.189Z,11.93
2023-01-01T01:48:14.992Z,12.08
2023-01-01T01:50:55.272Z,12.08
2023-01-01T01:53:34.236Z,12.10
2023-01-01T01:56:25.466Z,12.13
2023-01-01T01:59:20.237Z,12.05
2023-01-01T02:02:14.854Z,12.07
2023-01-01T02:05:02.340Z,12.07
2023-01-01T02:07:46.822Z,12.29
2023-01-01T02:10:24.507Z,12.33
2023-01-01T02:12:54.578Z,12.37
2023-01-01T02:15:30.333Z,12.46
2023-01-01T02:18:02.938Z,12.46
2023-01-01T02:20:41.081Z,12.36
2023-01-01T02:23:44.756Z,12.35
2023-01-01T02:26:59.212Z,12.37
2023-01-01T02:30:07.530Z,12.43
2023-01-01T02:32:47.160Z,12.45
2023-01-01T02:35:36.529Z,12.78
2023-01-01T02:38:09.504Z,12.73
2023-01-01T02:40:48.205Z,12.80
2023-01-01T02:43:24.622Z,12.79
2023-01-01T02:45:55.064Z,12.82
2023-01-01T02:48:42.726Z,12.80
2023-01-01T02:51:29.220Z,12.70
2023-01-01T02:54:06.806Z,12.74
2023-01-01T02:56:45.645Z,12.68
2023-01-01T02:59:51.326Z,12.83
2023-01-01T03:02:28.347Z,12.81
2023-01-01T03:05:09.587Z,12.65
2023-01-01T03:07:50.085Z,12.45
2023-01-01T03:10:24.537Z,12.48
2023-01-01T03:12:57.866Z,12.56
2023-01-01T03:15:31.571Z,12.62
2023-01-01T03:18:07.284Z,12.84
2023-01-01T03:20:40.475Z,12.90
2023-01-01T03:23:13.818Z,13.15
2023-01-01T03:25:47.832Z,13.24
2023-01-01T03:28:20.925Z,13.31
2023-01-01T03:30:51.463Z,13.33
2023-01-01T03:33:25.831Z,13.32
2023-01-01T03:35:57.411Z,13.17
2023-01-01T03:38:37.803Z,13.23
2023-01-01T03:41:11.625Z,13.10
2023-01-01T03:43:46.141Z,13.02
2023-01-01T03:47:06.329Z,13.02
2023-01-01T03:49:37.276Z,12.82
2023-01-01T03:52:22.497Z,13.07
2023-01-01T03:54:59.306Z,13.11
2023-01-01T03:57:45.818Z,13.10
2023-01-01T04:00:17.183Z,13.01
2023-01-01T04:02:56.335Z,13.05
2023-01-01T04:05:29.481Z,13.00
2023-01-01T04:08:01.966Z,12.99
2023-01-01T04:10:32.457Z,13.02
2023-01-01T04:13:04.716Z,12.97
2023-01-01T04:15:36.191Z,12.48
2023-01-01T04:18:09.643Z,12.16
2023-01-01T04:20:39.443Z,11.89
2023-01-01T04:23:08.642Z,11.79
2023-01-01T04:25:36.856Z,11.72
2023-01-01T04:28:05.022Z,11.65
2023-01-01T04:33:05.819Z,11.49
2023-01-01T04:35:47.176Z,11.41
2023-01-01T04:38:17.509Z,11.45
2023-01-01T04:40:52.479Z,11.44
2023-01-01T04:43:33.346Z,11.53
2023-01-01T04:46:02.886Z,11.77
2023-01-01T04:48:33.417Z,11.99
2023-01-01T04:51:10.755Z,12.05
2023-01-01T04:53:39.370Z,12.14
2023-01-01T04:56:10.661Z,12.24
2023-01-01T04:58:42.849Z,12.26
2023-01-01T05:01:16.403Z,12.27
2023-01-01T05:03:46.841Z,12.22
2023-01-01T05:06:18.670Z,12.34
2023-01-01T05:08:49.526Z,12.36
2023-01-01T05:11:19.450Z,12.25
2023-01-01T05:13:52.259Z,12.34
2023-01-01T05:16:26.956Z,12.32
2023-01-01T05:18:55.480Z,12.37
2023-01-01T05:21:28.683Z,12.36
2023-01-01T05:23:59.701Z,12.35
2023-01-01T05:26:29.601Z,12.34
2023-01-01T05:29:00.985Z,12.38
2023-01-01T05:31:31.487Z,12.23
2023-01-01T05:36:29.936Z,12.66
2023-01-01T05:38:59.071Z,12.78
2023-01-01T05:41:27.814Z,12.73
2023-01-01T05:43:58.611Z,12.68
2023-01-01T05:46:26.845Z,12.75
2023-01-01T05:48:56.068Z,12.72
2023-01-01T05:51:26.538Z,12.72
2023-01-01T05:53:56.972Z,12.64
2023-01-01T05:56:25.533Z,12.67
2023-01-01T05:58:54.203Z,12.73
2023-01-01T06:01:24.037Z,12.73
2023-01-01T06:03:56.147Z,12.74
2023-01-01T06:06:28.794Z,12.76
2023-01-01T06:09:00.606Z,12.72
2023-01-01T06:11:35.864Z,12.68
2023-01-01T06:14:04.109Z,12.71
2023-01-01T06:16:50.570Z,12.65
2023-01-01T06:19:34.152Z,12.61
2023-01-01T06:22:10.164Z,12.56
2023-01-01T06:24:45.097Z,12.59
2023-01-01T06:27:16.517Z,12.48
2023-01-01T06:29:47.583Z,12.45
2023-01-01T06:32:16.232Z,12.45
2023-01-01T06:34:44.255Z,12.45
2023-01-01T06:37:14.141Z,12.42
2023-01-01T06:39:50.420Z,12.46
2023-01-01T06:42:19.881Z,12.41
2023-01-01T06:44:47.888Z,12.48
2023-01-01T06:47:15.959Z,12.41
2023-01-01T06:49:43.995Z,12.32
2023-01-01T06:52:12.204Z,12.39
2023-01-01T06:54:44.621Z,12.32
2023-01-01T06:57:16.018Z,12.22
2023-01-01T06:59:43.998Z,12.25
2023-01-01T07:02:13.143Z,12.25
2023-01-01T07:04:41.329Z,12.20
2023-01-01T07:07:09.293Z,12.13
2023-01-01T07:09:38.509Z,12.26
2023-01-01T07:12:09.073Z,12.08
2023-01-01T07:14:39.432Z,12.08
2023-01-01T07:17:09.068Z,12.06
2023-01-01T07:19:36.996Z,12.18
2023-01-01T07:22:05.968Z,12.09
2023-01-01T07:24:35.696Z,12.07
2023-01-01T07:27:03.549Z,12.04
2023-01-01T07:29:31.477Z,12.01
2023-01-01T07:32:00.885Z,11.90
2023-01-01T07:34:28.874Z,11.90
2023-01-01T07:37:00.488Z,11.91
2023-01-01T07:39:30.721Z,11.90
2023-01-01T07:42:04.864Z,11.97
2023-01-01T07:44:35.564Z,12.01
2023-01-01T07:47:06.894Z,11.91
2023-01-01T07:49:40.192Z,11.90
2023-01-01T07:52:08.531Z,11.94
2023-01-01T07:54:40.506Z,11.93
2023-01-01T07:57:09.888Z,11.84
2023-01-01T07:59:39.179Z,11.77
2023-01-01T08:02:11.755Z,11.73
2023-01-01T08:04:42.421Z,11.89
2023-01-01T08:07:11.772Z,11.80
2023-01-01T08:09:40.051Z,11.72
2023-01-01T08:12:08.369Z,11.74
2023-01-01T08:14:38.622Z,11.66
2023-01-01T08:17:08.161Z,11.73
2023-01-01T08:19:37.328Z,11.71
2023-01-01T08:22:06.741Z,11.66
2023-01-01T08:24:34.771Z,11.59
2023-01-01T08:27:02.650Z,11.63
2023-01-01T08:29:30.909Z,11.62
2023-01-01T08:32:01.382Z,11.67
2023-01-01T08:34:30.622Z,11.70
2023-01-01T08:36:59.790Z,11.61
2023-01-01T08:39:32.417Z,11.54
2023-01-01T08:42:03.805Z,11.61
2023-01-01T08:44:38.975Z,11.64
2023-01-01T08:47:09.949Z,11.46
2023-01-01T08:49:47.743Z,11.55
2023-01-01T08:52:16.391Z,11.53
2023-01-01T08:54:48.318Z,11.60
2023-01-01T08:57:16.467Z,11.58
2023-01-01T08:59:44.421Z,11.57
2023-01-01T09:02:13.317Z,11.53
2023-01-01T09:04:43.837Z,11.63
2023-01-01T09:07:11.819Z,11.59
2023-01-01T09:09:42.371Z,11.60
2023-01-01T09:12:19.789Z,11.59
2023-01-01T09:14:48.409Z,11.58
2023-01-01T09:17:17.307Z,11.65
2023-01-01T09:19:50.238Z,11.66
2023-01-01T09:22:18.163Z,11.60
2023-01-01T09:24:47.342Z,11.66
2023-01-01T09:27:20.185Z,11.62
2023-01-01T09:29:48.337Z,11.68
2023-01-01T09:32:16.427Z,11.68
2023-01-01T09:34:51.952Z,11.59
2023-01-01T09:37:21.873Z,11.72
2023-01-01T09:39:51.004Z,11.73
2023-01-01T09:42:39.604Z,11.68
2023-01-01T09:45:21.450Z,11.76
2023-01-01T09:47:53.475Z,11.79
2023-01-01T09:50:25.780Z,11.80
2023-01-01T09:52:57.850Z,11.81
2023-01-01T09:55:29.235Z,11.86
2023-01-01T09:57:58.619Z,11.88
2023-01-01T10:00:32.444Z,11.89
2023-01-01T10:03:14.488Z,11.89
2023-01-01T10:05:54.032Z,11.87
2023-01-01T10:08:46.640Z,11.92
2023-01-01T10:11:28.813Z,11.93
2023-01-01T10:14:03.005Z,11.85
2023-01-01T10:16:41.530Z,11.78
2023-01-01T10:19:23.644Z,11.73
2023-01-01T10:21:54.141Z,11.76
2023-01-01T10:24:46.826Z,11.80
2023-01-01T10:27:27.380Z,11.80
2023-01-01T10:30:04.594Z,11.75
2023-01-01T10:32:43.436Z,11.83
2023-01-01T10:35:30.341Z,11.83
2023-01-01T10:38:40.025Z,11.85
2023-01-01T10:41:19.314Z,11.90
2023-01-01T10:43:50.106Z,11.86
2023-01-01T10:46:37.594Z,12.02
2023-01-01T10:49:13.557Z,12.14
2023-01-01T10:51:49.255Z,12.03
2023-01-01T10:54:33.027Z,11.91
2023-01-01T10:57:17.281Z,11.86
2023-01-01T10:59:54.686Z,11.81
2023-01-01T11:02:30.826Z,11.84
2023-01-01T11:05:21.053Z,11.80
2023-01-01T11:08:00.646Z,11.89
2023-01-01T11:10:30.722Z,11.84
2023-01-01T11:13:09.524Z,11.85
2023-01-01T11:15:44.762Z,11.74
2023-01-01T11:18:15.611Z,11.88
2023-01-01T11:20:45.774Z,12.00
2023-01-01T11:23:32.790Z,12.05
2023-01-01T11:26:06.534Z,11.99
2023-01-01T11:28:42.564Z,12.09
2023-01-01T11:31:18.169Z,12.23
2023-01-01T11:34:04.877Z,12.22
2023-01-01T11:36:42.229Z,12.15
2023-01-01T11:39:27.198Z,12.15
2023-01-01T11:42:19.217Z,11.97
2023-01-01T11:45:03.706Z,11.99
2023-01-01T11:48:09.241Z,12.16
2023-01-01T11:50:58.970Z,12.17
2023-01-01T11:53:35.490Z,12.26
2023-01-01T11:59:17.741Z,12.69
2023-01-01T12:02:06.658Z,12.88
2023-01-01T12:04:46.045Z,13.17
2023-01-01T12:07:28.963Z,13.56
2023-01-01T12:10:14.244Z,13.58
2023-01-01T12:13:15.395Z,13.96
2023-01-01T12:15:58.066Z,13.50
2023-01-01T12:18:52.083Z,13.08
2023-01-01T12:21:36.845Z,12.66
2023-01-01T12:24:25.272Z,12.59
2023-01-01T12:27:18.027Z,12.60
2023-01-01T12:30:31.340Z,12.30
2023-01-01T12:33:25.966Z,12.50
2023-01-01T12:36:19.176Z,12.57
2023-01-01T12:39:45.201Z,12.83
2023-01-01T12:42:20.749Z,13.02
2023-01-01T12:45:03.221Z,13.21
2023-01-01T12:47:43.975Z,13.20
2023-01-01T12:50:23.670Z,13.00
2023-01-01T12:53:07.453Z,12.89
2023-01-01T12:56:02.492Z,12.95
2023-01-01T12:58:35.627Z,12.82
2023-01-01T13:01:12.173Z,12.70
2023-01-01T13:03:51.926Z,12.64
2023-01-01T13:06:28.653Z,12.44
2023-01-01T13:09:07.805Z,12.45
2023-01-01T13:11:44.786Z,12.52
2023-01-01T13:14:19.070Z,12.61
2023-01-01T13:16:58.726Z,12.52
2023-01-01T13:19:32.550Z,12.57
2023-01-01T13:22:55.308Z,12.53
2023-01-01T13:25:29.471Z,12.34
2023-01-01T13:28:15.409Z,12.38
2023-01-01T13:31:00.552Z,12.41
2023-01-01T13:33:31.579Z,12.43
2023-01-01T13:36:34.044Z,12.38
2023-01-01T13:39:03.159Z,12.20
2023-01-01T13:41:41.782Z,12.17
2023-01-01T13:44:19.758Z,12.10
2023-01-01T13:47:08.833Z,12.15
2023-01-01T13:49:58.038Z,12.09
2023-01-01T13:53:43.671Z,12.08
2023-01-01T13:56:07.087Z,11.90
2023-01-01T13:59:07.905Z,11.98
2023-01-01T14:01:51.973Z,11.99
2023-01-01T14:04:37.518Z,12.06
2023-01-01T14:07:50.173Z,11.96
2023-01-01T14:10:26.049Z,11.91
2023-01-01T14:13:01.363Z,11.89
2023-01-01T14:15:54.453Z,11.85
2023-01-01T14:18:40.058Z,11.74
2023-01-01T14:21:28.041Z,11.74
2023-01-01T14:24:01.831Z,11.69
2023-01-01T14:26:35.361Z,11.65
2023-01-01T14:29:09.096Z,11.69
2023-01-01T14:32:09.044Z,11.60
2023-01-01T14:34:43.382Z,11.67
2023-01-01T14:37:23.782Z,11.60
2023-01-01T14:40:20.879Z,11.61
2023-01-01T14:43:02.093Z,11.61
2023-01-01T14:45:45.392Z,11.52
2023-01-01T14:48:20.758Z,11.44
2023-01-01T14:50:59.159Z,11.42
2023-01-01T14:53:35.342Z,11.44
2023-01-01T14:56:25.930Z,11.32
2023-01-01T14:58:56.056Z,11.34
2023-01-01T15:01:26.190Z,11.30
2023-01-01T15:04:02.302Z,11.23
2023-01-01T15:06:41.847Z,11.15
2023-01-01T15:09:19.116Z,11.08
2023-01-01T15:11:49.387Z,11.08
2023-01-01T15:14:31.990Z,10.92
2023-01-01T15:17:04.563Z,10.86
2023-01-01T15:19:36.534Z,10.96
2023-01-01T15:22:10.985Z,10.88
2023-01-01T15:24:41.524Z,10.92
2023-01-01T15:27:22.821Z,10.79
2023-01-01T15:29:56.520Z,10.68
2023-01-01T15:32:27.679Z,10.58
2023-01-01T15:35:05.620Z,10.53
2023-01-01T15:37:39.285Z,10.56
2023-01-01T15:40:32.577Z,10.57
2023-01-01T15:43:21.015Z,10.57
2023-01-01T15:45:57.159Z,10.45
2023-01-01T15:48:37.797Z,10.43
2023-01-01T15:51:25.916Z,10.43
2023-01-01T15:54:02.284Z,10.43
2023-01-01T15:56:33.416Z,10.49
2023-01-01T15:59:09.500Z,10.52
2023-01-01T16:01:41.272Z,10.46
2023-01-01T16:04:11.510Z,10.38
2023-01-01T16:06:46.067Z,10.46
2023-01-01T16:09:14.548Z,10.47
2023-01-01T16:11:42.974Z,10.50
2023-01-01T16:14:11.152Z,10.45
2023-01-01T16:16:40.599Z,10.50
2023-01-01T16:19:17.985Z,10.49
2023-01-01T16:23:24.382Z,10.47
2023-01-01T16:24:39.087Z,10.47
2023-01-01T16:27:20.011Z,10.47
2023-01-01T16:29:54.484Z,10.50
2023-01-01T16:32:23.019Z,10.48
2023-01-01T16:34:51.884Z,10.42
2023-01-01T16:37:25.587Z,10.45
2023-01-01T16:39:53.528Z,10.38
2023-01-01T16:42:22.258Z,10.33
2023-01-01T16:44:50.318Z,10.33
2023-01-01T16:47:18.404Z,10.29
2023-01-01T16:49:47.290Z,10.43
2023-01-01T16:52:16.474Z,10.45
2023-01-01T16:54:49.387Z,10.44
2023-01-01T16:57:17.364Z,10.40
2023-01-01T16:59:47.585Z,10.39
2023-01-01T17:02:15.747Z,10.45
2023-01-01T17:04:43.997Z,10.49
2023-01-01T17:07:14.179Z,10.49
2023-01-01T17:09:43.246Z,10.48
2023-01-01T17:12:20.137Z,10.45
2023-01-01T17:14:48.708Z,10.46
2023-01-01T17:17:16.831Z,10.49
2023-01-01T17:19:44.796Z,10.57
2023-01-01T17:22:12.779Z,10.61
2023-01-01T17:24:43.231Z,10.50
2023-01-01T17:27:22.627Z,10.66
2023-01-01T17:29:52.582Z,10.75
2023-01-01T17:32:20.509Z,10.77
2023-01-01T17:34:50.365Z,10.78
2023-01-01T17:37:19.589Z,10.76
2023-01-01T17:39:52.563Z,10.81
2023-01-01T17:42:25.772Z,10.86
2023-01-01T17:44:56.912Z,10.88
2023-01-01T17:47:47.580Z,10.90
2023-01-01T17:50:35.702Z,10.87
2023-01-01T17:53:10.615Z,10.86
2023-01-01T17:55:45.001Z,10.95
2023-01-01T17:58:18.122Z,10.88
2023-01-01T18:00:47.561Z,10.90
2023-01-01T18:03:19.418Z,10.91
2023-01-01T18:05:47.497Z,10.85
2023-01-01T18:08:27.020Z,10.98
2023-01-01T18:10:58.094Z,10.96
2023-01-01T18:13:29.718Z,10.87
2023-01-01T18:16:02.746Z,10.94
2023-01-01T18:18:32.773Z,10.87
2023-01-01T18:21:03.632Z,10.71
2023-01-01T18:23:36.598Z,10.81
2023-01-01T18:26:10.407Z,10.87
2023-01-01T18:28:40.230Z,10.86
2023-01-01T18:31:10.324Z,10.82
2023-01-01T18:33:46.868Z,10.80
2023-01-01T18:36:18.361Z,10.67
2023-01-01T18:38:56.329Z,10.71
2023-01-01T18:41:43.812Z,10.76
2023-01-01T18:44:28.874Z,10.65
2023-01-01T18:47:13.267Z,10.64
2023-01-01T18:49:51.948Z,10.51
2023-01-01T18:52:34.898Z,10.50
2023-01-01T18:55:20.887Z,10.43
2023-01-01T18:58:21.358Z,10.38
2023-01-01T19:01:03.225Z,10.29
2023-01-01T19:03:41.037Z,10.27
2023-01-01T19:06:27.170Z,10.29
2023-01-01T19:09:17.227Z,10.21
2023-01-01T19:11:56.555Z,10.24
2023-01-01T19:14:35.571Z,10.21
2023-01-01T19:17:38.317Z,10.16
2023-01-01T19:20:32.526Z,10.10
2023-01-01T19:23:05.772Z,10.12
2023-01-01T19:26:01.919Z,10.00
2023-01-01T19:28:39.943Z,10.05
2023-01-01T19:31:21.089Z,10.06
2023-01-01T19:33:54.262Z,10.04
2023-01-01T19:36:22.235Z,10.00
2023-01-01T19:38:50.550Z,9.98
2023-01-01T19:41:19.733Z,9.98
2023-01-01T19:43:50.977Z,10.02
2023-01-01T19:46:25.651Z,9.93
2023-01-01T19:49:00.855Z,9.96
2023-01-01T19:51:35.803Z,9.98
2023-01-01T19:54:08.552Z,10.03
2023-01-01T19:56:36.623Z,9.96
2023-01-01T19:59:09.300Z,9.96
2023-01-01T20:01:41.984Z,9.91
2023-01-01T20:04:20.990Z,10.00
2023-01-01T20:06:50.897Z,9.93
2023-01-01T20:09:22.582Z,9.93
2023-01-01T20:11:50.948Z,10.01
2023-01-01T20:14:23.516Z,9.96
2023-01-01T20:16:53.427Z,9.94
2023-01-01T20:19:22.759Z,9.87
2023-01-01T20:22:08.585Z,9.84
2023-01-01T20:24:39.372Z,9.84
2023-01-01T20:27:08.983Z,9.89
2023-01-01T20:29:36.928Z,9.85
2023-01-01T20:32:07.554Z,9.79
2023-01-01T20:34:40.649Z,9.73
2023-01-01T20:37:26.508Z,9.68
2023-01-01T20:40:50.293Z,9.66
2023-01-01T20:43:37.484Z,9.48
2023-01-01T20:46:05.555Z,9.53
2023-01-01T20:48:34.761Z,9.45
2023-01-01T20:51:04.310Z,9.45
2023-01-01T20:53:34.056Z,9.36
2023-01-01T20:56:03.939Z,9.28
2023-01-01T20:58:31.959Z,9.33
2023-01-01T21:01:01.544Z,9.29
2023-01-01T21:03:29.741Z,9.25
2023-01-01T21:06:08.090Z,9.22
2023-01-01T21:08:46.698Z,9.18
2023-01-01T21:11:15.081Z,9.13
2023-01-01T21:13:46.600Z,9.12
2023-01-01T21:16:18.266Z,9.13
2023-01-01T21:18:47.565Z,9.10
2023-01-01T21:21:23.316Z,9.10
2023-01-01T21:23:56.257Z,9.08
2023-01-01T21:26:38.157Z,9.06
2023-01-01T21:29:14.360Z,9.06
2023-01-01T21:31:43.933Z,8.99
2023-01-01T21:34:32.019Z,9.10
2023-01-01T21:37:05.041Z,9.00
2023-01-01T21:39:34.425Z,9.09
2023-01-01T21:42:19.051Z,9.06
2023-01-01T21:44:55.769Z,9.03
2023-01-01T21:47:25.730Z,9.09
2023-01-01T21:50:01.563Z,9.10
2023-01-01T21:52:34.611Z,9.09
2023-01-01T21:55:09.277Z,9.15
2023-01-01T21:57:37.950Z,9.12
2023-01-01T22:00:19.870Z,9.10
2023-01-01T22:02:50.337Z,9.10
2023-01-01T22:05:31.111Z,9.12
2023-01-01T22:08:21.630Z,9.16
2023-01-01T22:11:02.469Z,9.20
2023-01-01T22:13:30.382Z,9.16
2023-01-01T22:16:03.142Z,9.16
2023-01-01T22:18:40.088Z,9.15
2023-01-01T22:21:15.872Z,9.17
2023-01-01T22:23:44.628Z,9.12
2023-01-01T22:26:20.022Z,9.17
2023-01-01T22:28:50.621Z,9.15
2023-01-01T22:31:27.969Z,9.11
2023-01-01T22:34:02.981Z,9.19
2023-01-01T22:36:35.283Z,9.20
2023-01-01T22:39:12.705Z,9.19
2023-01-01T22:41:43.305Z,9.18
2023-01-01T22:44:14.490Z,9.20
2023-01-01T22:46:42.967Z,9.21
2023-01-01T22:49:19.492Z,9.22
2023-01-01T22:51:48.449Z,9.24
2023-01-01T22:54:17.813Z,9.28
2023-01-01T22:57:01.971Z,9.24
2023-01-01T22:59:31.895Z,9.30
2023-01-01T23:02:03.722Z,9.28
2023-01-01T23:04:31.799Z,9.32
2023-01-01T23:08:23.544Z,9.34
2023-01-01T23:11:24.070Z,9.23
2023-01-01T23:14:15.204Z,9.33
2023-01-01T23:16:53.776Z,9.39
2023-01-01T23:19:43.362Z,9.44
2023-01-01T23:22:23.955Z,9.49
2023-01-01T23:25:31.654Z,9.38
2023-01-01T23:28:00.708Z,9.56
2023-01-01T23:30:31.311Z,9.63
2023-01-01T23:32:59.441Z,9.66
2023-01-01T23:35:33.609Z,9.76
2023-01-01T23:38:02.851Z,9.70
2023-01-01T23:40:30.761Z,9.83
2023-01-01T23:42:59.285Z,9.90
2023-01-01T23:45:42.715Z,9.96
2023-01-01T23:48:16.309Z,9.95
2023-01-01T23:50:46.881Z,9.95
2023-01-01T23:53:16.802Z,9.96
2023-01-01T23:55:45.127Z,10.02
2023-01-01T23:58:13.297Z,10.02
